Time;durP1;ratioP1;P1;durP2;ratioP2;P2;SDS_P1;SDS_P2;PMS_P1;PMS_P2;Temp;Humidity;BMP_temperature;BMP_pressure;BME280_temperature;BME280_humidity;BME280_pressure;Samples;Min_cycle;Max_cycle;Signal;HPM_P1;HPM_P2
2022/06/28 00:01:14;;;;;;;5.93;4.53;;;19.10;77.30;;;;;;2318018;58;21109;-74
2022/06/28 00:03:42;;;;;;;6.95;4.10;;;19.10;76.20;;;;;;2318349;58;21493;-75
2022/06/28 00:06:10;;;;;;;8.85;3.33;;;19.10;76.30;;;;;;2319379;58;21047;-75
2022/06/28 00:08:37;;;;;;;5.40;3.92;;;19.10;76.00;;;;;;2317644;58;21582;-74
2022/06/28 00:11:05;;;;;;;6.93;4.53;;;19.10;75.80;;;;;;2317790;58;21115;-74
2022/06/28 00:13:32;;;;;;;4.72;3.90;;;19.10;75.70;;;;;;2318537;58;21034;-75
2022/06/28 00:16:06;;;;;;;5.47;4.18;;;19.10;75.70;;;;;;2318229;58;21034;-74
2022/06/28 00:18:35;;;;;;;5.28;4.72;;;19.00;75.60;;;;;;2320065;58;21023;-74
2022/06/28 00:21:03;;;;;;;9.77;5.47;;;19.10;75.70;;;;;;2559295;54;21026;-74
2022/06/28 00:23:31;;;;;;;10.00;6.25;;;19.00;75.70;;;;;;2318382;58;21054;-75
2022/06/28 00:25:59;;;;;;;10.05;6.53;;;19.00;75.80;;;;;;2318881;58;21043;-74
2022/06/28 00:28:27;;;;;;;9.23;6.55;;;19.00;76.00;;;;;;2319879;58;21592;-75
2022/06/28 00:30:54;;;;;;;12.25;8.20;;;19.00;76.10;;;;;;2319228;58;21512;-75
2022/06/28 00:33:22;;;;;;;12.23;8.55;;;18.90;76.20;;;;;;2319060;58;21038;-74
2022/06/28 00:35:49;;;;;;;10.02;8.85;;;18.90;76.30;;;;;;2318094;58;21097;-74
2022/06/28 00:38:17;;;;;;;15.85;8.27;;;18.90;76.50;;;;;;2315661;58;21125;-75
2022/06/28 00:40:48;;;;;;;10.25;7.75;;;18.90;76.70;;;;;;2319278;58;21018;-75
2022/06/28 00:43:16;;;;;;;13.25;8.77;;;18.90;76.60;;;;;;2319467;58;21062;-74
2022/06/28 00:45:45;;;;;;;14.50;10.27;;;18.90;76.40;;;;;;2560706;53;21102;-74
2022/06/28 00:48:15;;;;;;;11.95;9.20;;;19.00;76.40;;;;;;2318865;58;21545;-74
2022/06/28 00:50:43;;;;;;;10.48;7.90;;;19.00;76.40;;;;;;2317707;58;21494;-74
2022/06/28 00:53:14;;;;;;;12.30;8.40;;;19.00;76.30;;;;;;2319408;58;21040;-75
2022/06/28 00:55:43;;;;;;;11.38;8.52;;;19.00;76.10;;;;;;2319195;58;21023;-74
2022/06/28 00:58:11;;;;;;;11.70;8.30;;;19.00;75.90;;;;;;2318609;58;21588;-75
2022/06/28 01:00:41;;;;;;;9.18;7.82;;;19.00;75.70;;;;;;2318886;58;21117;-75
2022/06/28 01:03:11;;;;;;;11.35;8.93;;;19.00;75.70;;;;;;2318284;58;21090;-75
2022/06/28 01:05:42;;;;;;;12.27;8.45;;;19.00;75.60;;;;;;2317786;58;21043;-74
2022/06/28 01:08:11;;;;;;;12.82;8.82;;;19.00;75.50;;;;;;2317911;58;21553;-74
2022/06/28 01:10:40;;;;;;;11.25;7.62;;;19.00;75.40;;;;;;2317743;58;21031;-75
2022/06/28 01:13:09;;;;;;;10.27;7.60;;;19.10;75.20;;;;;;2318858;58;21043;-75
2022/06/28 01:15:37;;;;;;;12.32;7.53;;;19.00;75.00;;;;;;2317228;58;21034;-74
2022/06/28 01:18:06;;;;;;;8.88;7.15;;;19.00;74.90;;;;;;2318795;58;21026;-74
2022/06/28 01:20:34;;;;;;;10.50;8.18;;;19.00;74.80;;;;;;2318450;58;21042;-74
2022/06/28 01:23:02;;;;;;;12.18;8.68;;;19.00;74.80;;;;;;2317022;58;21043;-74
2022/06/28 01:25:30;;;;;;;10.88;7.65;;;19.00;74.70;;;;;;2316884;58;21105;-74
2022/06/28 01:27:58;;;;;;;11.73;8.35;;;19.00;74.80;;;;;;2317941;58;21038;-74
2022/06/28 01:30:27;;;;;;;10.15;7.75;;;19.00;74.80;;;;;;2560017;54;21082;-75
2022/06/28 01:32:55;;;;;;;11.57;7.40;;;18.90;74.70;;;;;;2317909;58;21114;-75
2022/06/28 01:35:23;;;;;;;11.90;8.30;;;18.90;74.70;;;;;;2315949;58;21133;-74
2022/06/28 01:37:50;;;;;;;10.40;8.35;;;18.90;74.60;;;;;;2559201;54;21019;-75
2022/06/28 01:42:53;;;;;;;15.17;11.03;;;18.90;74.50;;;;;;2336391;57;38397;-74
2022/06/28 01:45:21;;;;;;;9.77;7.97;;;18.50;76.80;;;;;;2347081;57;21730;-74
2022/06/28 01:47:49;;;;;;;11.50;7.50;;;18.80;76.10;;;;;;2347108;57;21532;-75
2022/06/28 01:50:16;;;;;;;10.13;7.80;;;18.80;75.30;;;;;;2345288;57;21162;-74
2022/06/28 01:52:44;;;;;;;19.80;8.90;;;18.80;74.90;;;;;;2345173;57;21050;-74
2022/06/28 01:55:12;;;;;;;8.63;7.10;;;18.90;74.70;;;;;;2592183;53;21034;-74
2022/06/28 01:57:40;;;;;;;12.50;8.10;;;18.90;74.60;;;;;;2346239;57;21161;-74
2022/06/28 02:00:10;;;;;;;8.85;6.85;;;18.80;74.20;;;;;;2345439;57;21623;-74
2022/06/28 02:02:37;;;;;;;10.23;7.97;;;18.90;74.00;;;;;;2346004;57;21695;-74
2022/06/28 02:05:06;;;;;;;8.13;6.05;;;18.80;73.80;;;;;;2344682;57;21085;-75
2022/06/28 02:07:33;;;;;;;9.25;7.15;;;18.80;73.80;;;;;;2345848;57;21097;-74
2022/06/28 02:10:01;;;;;;;9.55;7.40;;;18.80;74.10;;;;;;2345542;57;21119;-75
2022/06/28 02:12:29;;;;;;;8.95;6.72;;;18.80;74.30;;;;;;2345610;57;21128;-75
2022/06/28 02:14:57;;;;;;;11.00;7.93;;;18.80;74.60;;;;;;2346371;57;21042;-75
2022/06/28 02:17:24;;;;;;;10.45;7.72;;;18.80;74.30;;;;;;2344706;57;21065;-74
2022/06/28 02:19:52;;;;;;;11.35;7.50;;;18.80;74.10;;;;;;2592684;53;21053;-74
2022/06/28 02:22:19;;;;;;;11.55;8.40;;;18.80;74.10;;;;;;2345268;57;21082;-74
2022/06/28 02:24:48;;;;;;;10.27;7.85;;;18.80;74.10;;;;;;2345375;57;21049;-75
2022/06/28 02:27:16;;;;;;;11.57;8.20;;;18.80;74.10;;;;;;2345654;57;21053;-74
2022/06/28 02:29:43;;;;;;;9.40;7.87;;;18.80;74.30;;;;;;2345261;57;21042;-75
2022/06/28 02:32:11;;;;;;;8.70;7.47;;;18.80;74.60;;;;;;2345906;57;21046;-74
2022/06/28 02:40:24;;;;;;;11.23;8.07;;;18.70;74.40;;;;;;2344368;57;21085;-74
2022/06/28 02:42:54;;;;;;;9.43;7.80;;;18.70;74.20;;;;;;2344808;57;21109;-74
2022/06/28 02:45:24;;;;;;;9.45;8.38;;;18.70;74.20;;;;;;2344618;57;21122;-74
2022/06/28 02:47:52;;;;;;;12.23;8.95;;;18.70;74.30;;;;;;2345512;57;21046;-75
2022/06/28 02:50:20;;;;;;;13.35;9.50;;;18.60;74.30;;;;;;2345280;57;21181;-75
2022/06/28 02:52:48;;;;;;;11.85;9.13;;;18.60;74.30;;;;;;2344571;57;21541;-75
2022/06/28 02:55:16;;;;;;;11.02;8.27;;;18.60;74.10;;;;;;2343795;57;21062;-74
2022/06/28 02:57:45;;;;;;;11.43;8.45;;;18.60;74.10;;;;;;2344509;57;21054;-75
2022/06/28 03:00:15;;;;;;;11.15;8.55;;;18.60;74.30;;;;;;2344432;57;21034;-74
2022/06/28 03:02:44;;;;;;;14.13;9.57;;;18.60;74.10;;;;;;2344189;57;21041;-75
2022/06/28 03:05:13;;;;;;;18.37;10.73;;;18.60;73.90;;;;;;2344471;57;21038;-74
2022/06/28 03:07:42;;;;;;;12.43;9.05;;;18.60;73.90;;;;;;2344378;57;21551;-74
2022/06/28 03:10:11;;;;;;;14.87;11.02;;;18.50;73.90;;;;;;2343914;57;21125;-75
2022/06/28 03:12:39;;;;;;;15.93;10.80;;;18.50;73.90;;;;;;2345232;57;21592;-74
2022/06/28 03:15:09;;;;;;;19.87;11.88;;;18.50;74.00;;;;;;2592264;53;21045;-75
2022/06/28 03:17:36;;;;;;;22.90;12.70;;;18.50;74.10;;;;;;2343990;57;21026;-75
2022/06/28 03:20:06;;;;;;;19.48;13.50;;;18.50;74.30;;;;;;2344276;57;21497;-74
2022/06/28 03:22:33;;;;;;;23.52;14.85;;;18.50;74.60;;;;;;2343893;57;21109;-74
2022/06/28 03:25:01;;;;;;;25.70;15.18;;;18.50;74.90;;;;;;2344660;57;21437;-74
2022/06/28 03:27:29;;;;;;;26.25;16.05;;;18.50;75.60;;;;;;2343445;57;21038;-75
2022/06/28 03:29:56;;;;;;;22.48;14.68;;;18.50;75.50;;;;;;2344534;57;21030;-74
2022/06/28 03:32:24;;;;;;;25.70;17.12;;;18.50;75.90;;;;;;2344377;57;21042;-74
2022/06/28 03:34:52;;;;;;;21.85;14.38;;;18.50;76.20;;;;;;2343675;57;21364;-73
2022/06/28 03:37:19;;;;;;;25.48;16.12;;;18.50;76.30;;;;;;2344215;57;21129;-74
2022/06/28 03:39:47;;;;;;;25.12;14.87;;;18.40;76.30;;;;;;2343982;57;21141;-74
2022/06/28 03:42:14;;;;;;;24.87;16.08;;;18.40;76.70;;;;;;2344168;57;21073;-73
2022/06/28 03:44:42;;;;;;;30.42;15.35;;;18.40;76.90;;;;;;2344098;57;21030;-74
2022/06/28 03:47:10;;;;;;;25.15;14.93;;;18.40;76.60;;;;;;2342631;57;21524;-74
2022/06/28 03:49:37;;;;;;;23.02;15.13;;;18.50;76.80;;;;;;2343980;57;21124;-74
2022/06/28 03:52:05;;;;;;;22.48;14.60;;;18.50;76.70;;;;;;2344932;57;21058;-74
2022/06/28 03:54:33;;;;;;;23.10;14.18;;;18.50;76.80;;;;;;2343163;57;21798;-73
2022/06/28 03:57:01;;;;;;;22.62;13.68;;;18.50;76.90;;;;;;2343629;57;21120;-74
2022/06/28 03:59:28;;;;;;;21.92;13.77;;;18.60;77.20;;;;;;2343558;57;21089;-74
2022/06/28 04:01:56;;;;;;;23.60;15.27;;;18.60;77.30;;;;;;2344493;57;21057;-74
2022/06/28 04:04:23;;;;;;;23.40;14.95;;;18.70;77.00;;;;;;2343743;57;21803;-73
2022/06/28 04:06:51;;;;;;;31.33;16.60;;;18.70;76.80;;;;;;2590999;53;21109;-74
2022/06/28 04:09:18;;;;;;;25.17;15.68;;;18.80;76.70;;;;;;2589748;53;21121;-74
2022/06/28 04:11:46;;;;;;;33.83;17.40;;;18.80;77.50;;;;;;2341626;57;21073;-74
2022/06/28 04:14:13;;;;;;;26.87;15.80;;;18.80;76.60;;;;;;2588805;53;21613;-74
2022/06/28 04:16:41;;;;;;;27.23;17.05;;;18.80;76.70;;;;;;2588247;52;21624;-73
2022/06/28 04:19:09;;;;;;;25.85;15.93;;;18.80;76.80;;;;;;2590601;53;21564;-74
2022/06/28 04:21:37;;;;;;;31.92;17.08;;;18.90;76.70;;;;;;2344126;57;21839;-74
2022/06/28 04:24:05;;;;;;;27.00;16.00;;;18.90;76.70;;;;;;2342271;57;21070;-74
2022/06/28 04:26:33;;;;;;;32.33;18.20;;;18.90;76.60;;;;;;2342570;57;21082;-73
2022/06/28 04:29:01;;;;;;;31.20;19.25;;;19.00;76.60;;;;;;2343268;57;21114;-75
2022/06/28 04:31:28;;;;;;;25.92;16.73;;;19.00;76.40;;;;;;2590616;53;21505;-74
2022/06/28 04:33:56;;;;;;;27.92;17.35;;;19.00;76.50;;;;;;2344311;57;21046;-74
2022/06/28 04:36:26;;;;;;;23.62;16.83;;;19.10;76.40;;;;;;2343474;57;21058;-74
2022/06/28 04:38:54;;;;;;;32.42;20.02;;;19.10;76.30;;;;;;2344660;57;21050;-73
2022/06/28 04:41:24;;;;;;;23.95;15.65;;;19.10;76.30;;;;;;2344403;57;21212;-73
2022/06/28 04:43:53;;;;;;;23.67;15.75;;;19.20;76.30;;;;;;2343950;57;21037;-73
2022/06/28 04:46:21;;;;;;;22.42;14.52;;;19.30;76.30;;;;;;2344697;57;21176;-73
2022/06/28 04:48:48;;;;;;;21.77;14.90;;;19.30;76.30;;;;;;2345003;57;21050;-73
2022/06/28 04:51:16;;;;;;;23.00;16.05;;;19.30;76.30;;;;;;2345304;57;21106;-74
2022/06/28 04:53:45;;;;;;;27.52;15.68;;;19.40;76.50;;;;;;2591244;53;21022;-73
2022/06/28 04:56:13;;;;;;;22.70;14.77;;;19.40;76.20;;;;;;2344452;57;21592;-73
2022/06/28 04:58:41;;;;;;;22.73;14.05;;;19.50;76.20;;;;;;2344933;57;21577;-73
2022/06/28 05:01:08;;;;;;;23.27;13.15;;;19.60;76.10;;;;;;2344502;57;21147;-74
2022/06/28 05:03:37;;;;;;;22.55;13.38;;;19.60;75.90;;;;;;2591639;53;21050;-73
2022/06/28 05:06:05;;;;;;;15.90;11.82;;;19.60;75.20;;;;;;2343673;57;21117;-73
2022/06/28 05:08:32;;;;;;;16.90;11.12;;;19.70;75.20;;;;;;2344733;57;21538;-74
2022/06/28 05:11:00;;;;;;;18.02;10.95;;;19.70;75.00;;;;;;2344798;57;21034;-73
2022/06/28 05:13:29;;;;;;;15.98;11.38;;;19.80;74.80;;;;;;2344741;57;21580;-73
2022/06/28 05:15:56;;;;;;;18.73;10.85;;;19.80;74.80;;;;;;2344638;57;21129;-73
2022/06/28 05:18:24;;;;;;;11.50;9.23;;;19.90;74.70;;;;;;2345577;57;21130;-73
2022/06/28 05:20:51;;;;;;;15.98;10.07;;;19.90;74.90;;;;;;2591352;53;21026;-73
2022/06/28 05:23:19;;;;;;;13.65;10.93;;;20.00;75.00;;;;;;2344688;57;21608;-73
2022/06/28 05:25:46;;;;;;;13.98;9.60;;;20.00;74.90;;;;;;2342997;57;21077;-75
2022/06/28 05:28:14;;;;;;;16.87;10.98;;;20.00;74.40;;;;;;2344514;57;21105;-73
2022/06/28 05:30:41;;;;;;;14.07;10.35;;;20.10;74.40;;;;;;2342912;57;21045;-73
2022/06/28 05:33:09;;;;;;;13.30;9.18;;;20.10;74.20;;;;;;2344271;57;21058;-73
2022/06/28 05:35:36;;;;;;;14.25;10.38;;;20.10;74.30;;;;;;2345124;57;21117;-73
2022/06/28 05:38:04;;;;;;;14.20;9.38;;;20.10;73.90;;;;;;2344836;57;21054;-73
2022/06/28 05:40:31;;;;;;;11.12;9.32;;;20.20;73.90;;;;;;2345108;57;22277;-73
2022/06/28 05:42:59;;;;;;;13.40;8.80;;;20.20;74.60;;;;;;2344965;57;21044;-73
2022/06/28 05:45:27;;;;;;;10.70;7.80;;;20.20;73.50;;;;;;2344963;57;21639;-73
2022/06/28 05:47:54;;;;;;;11.95;8.43;;;20.20;73.30;;;;;;2345127;57;21054;-73
2022/06/28 05:50:22;;;;;;;12.95;8.55;;;20.30;73.00;;;;;;2345355;57;21524;-73
2022/06/28 05:52:49;;;;;;;10.98;8.20;;;20.30;72.80;;;;;;2345158;57;21627;-73
2022/06/28 05:55:17;;;;;;;13.70;8.10;;;20.30;72.70;;;;;;2344398;57;21070;-73
2022/06/28 05:57:44;;;;;;;11.48;7.93;;;20.30;72.80;;;;;;2344654;57;22259;-73
2022/06/28 06:00:13;;;;;;;12.20;7.32;;;20.30;72.70;;;;;;2345275;57;21105;-73
2022/06/28 06:02:41;;;;;;;9.02;7.20;;;20.40;72.90;;;;;;2345011;57;21556;-73
2022/06/28 06:05:09;;;;;;;8.98;7.05;;;20.40;72.70;;;;;;2345197;57;21088;-73
2022/06/28 06:07:37;;;;;;;10.65;6.22;;;20.40;72.50;;;;;;2345202;57;21049;-73
2022/06/28 06:10:06;;;;;;;12.27;7.07;;;20.40;72.50;;;;;;2344565;57;21105;-73
2022/06/28 06:12:34;;;;;;;9.27;6.20;;;20.40;72.30;;;;;;2345111;57;21058;-73
2022/06/28 06:15:02;;;;;;;9.70;6.90;;;20.40;72.00;;;;;;2591786;53;21121;-73
2022/06/28 06:17:29;;;;;;;8.65;5.85;;;20.50;71.80;;;;;;2344834;57;21038;-73
2022/06/28 06:19:56;;;;;;;7.95;5.45;;;20.50;71.80;;;;;;2345195;57;21101;-73
2022/06/28 06:22:24;;;;;;;8.15;6.32;;;20.50;71.40;;;;;;2345376;57;21117;-73
2022/06/28 06:24:51;;;;;;;9.02;5.93;;;20.50;71.40;;;;;;2344146;57;21038;-73
2022/06/28 06:27:19;;;;;;;7.55;6.32;;;20.60;71.30;;;;;;2344574;57;21046;-73
2022/06/28 06:29:47;;;;;;;11.25;6.65;;;20.60;70.90;;;;;;2345231;57;21101;-73
2022/06/28 06:32:14;;;;;;;9.18;6.75;;;20.60;70.90;;;;;;2345507;57;21067;-73
2022/06/28 06:34:41;;;;;;;8.45;6.37;;;20.60;70.50;;;;;;2592288;53;21114;-73
2022/06/28 06:37:09;;;;;;;7.93;5.70;;;20.60;70.60;;;;;;2345199;57;21118;-72
2022/06/28 06:39:36;;;;;;;9.43;5.75;;;20.70;70.60;;;;;;2345016;57;21042;-73
2022/06/28 06:42:05;;;;;;;9.68;6.62;;;20.80;70.90;;;;;;2345232;57;21113;-73
2022/06/28 06:44:33;;;;;;;11.25;9.23;;;20.80;71.10;;;;;;2345305;57;21090;-73
2022/06/28 06:47:00;;;;;;;13.38;9.73;;;20.90;71.00;;;;;;2344975;57;21053;-72
2022/06/28 06:49:28;;;;;;;18.15;10.27;;;20.90;70.40;;;;;;2345604;57;21121;-72
2022/06/28 06:51:55;;;;;;;16.12;11.27;;;20.90;69.90;;;;;;2345021;57;21030;-75
2022/06/28 06:54:23;;;;;;;12.98;10.45;;;20.80;69.60;;;;;;2344535;57;21117;-75
2022/06/28 06:56:50;;;;;;;13.93;10.73;;;20.80;69.80;;;;;;2343957;57;21561;-75
2022/06/28 06:59:18;;;;;;;13.73;11.82;;;20.70;70.00;;;;;;2345033;57;21042;-72
2022/06/28 07:01:45;;;;;;;12.23;10.25;;;20.80;69.70;;;;;;2345038;57;21110;-72
2022/06/28 07:04:15;;;;;;;14.25;9.43;;;20.70;70.10;;;;;;2345316;57;21691;-73
2022/06/28 07:06:42;;;;;;;11.55;7.62;;;20.80;70.40;;;;;;2344444;57;21054;-73
2022/06/28 07:09:10;;;;;;;11.82;9.77;;;20.80;70.10;;;;;;2344963;57;21102;-72
2022/06/28 07:11:37;;;;;;;8.82;7.37;;;20.90;69.70;;;;;;2345094;57;21550;-73
2022/06/28 07:14:05;;;;;;;8.07;7.00;;;20.90;69.70;;;;;;2345583;57;21097;-73
2022/06/28 07:16:32;;;;;;;13.25;9.18;;;21.00;69.40;;;;;;2344602;57;21089;-73
2022/06/28 07:19:00;;;;;;;10.45;7.05;;;21.10;68.50;;;;;;2345066;57;21046;-73
2022/06/28 07:21:27;;;;;;;8.80;6.70;;;21.10;67.50;;;;;;2345321;57;21054;-73
2022/06/28 07:23:55;;;;;;;8.50;7.47;;;21.20;67.70;;;;;;2345295;57;21090;-73
2022/06/28 07:26:24;;;;;;;8.82;6.45;;;21.20;67.80;;;;;;2344764;57;21106;-73
2022/06/28 07:28:51;;;;;;;12.85;6.45;;;21.20;67.70;;;;;;2344662;57;21920;-73
2022/06/28 07:31:19;;;;;;;9.85;6.22;;;21.20;67.50;;;;;;2345354;57;21058;-73
2022/06/28 07:33:46;;;;;;;7.80;5.72;;;21.20;67.50;;;;;;2345145;57;21042;-73
2022/06/28 07:36:15;;;;;;;6.60;5.00;;;21.20;67.10;;;;;;2344648;57;21088;-73
2022/06/28 07:38:43;;;;;;;10.10;5.45;;;21.20;66.50;;;;;;2345402;57;21054;-73
2022/06/28 07:41:10;;;;;;;7.53;5.68;;;21.10;66.60;;;;;;2345288;57;21053;-73
2022/06/28 07:43:39;;;;;;;6.47;5.22;;;21.10;66.90;;;;;;2344844;57;21058;-73
2022/06/28 07:46:06;;;;;;;8.40;6.10;;;21.10;67.30;;;;;;2344797;57;21106;-73
2022/06/28 07:48:34;;;;;;;7.65;5.60;;;21.10;67.00;;;;;;2345518;57;21678;-73
2022/06/28 07:53:47;;;;;;;9.07;5.30;;;21.00;66.60;;;;;;2345123;57;21036;-73
2022/06/28 07:56:15;;;;;;;6.68;4.87;;;21.00;66.40;;;;;;2344430;57;21846;-73
2022/06/28 07:58:43;;;;;;;10.02;5.07;;;20.90;66.40;;;;;;2345091;57;21046;-73
2022/06/28 08:01:10;;;;;;;7.85;5.43;;;21.00;67.30;;;;;;2345381;57;21125;-73
2022/06/28 08:03:38;;;;;;;7.12;4.65;;;20.90;66.50;;;;;;2345311;57;21576;-72
2022/06/28 08:06:05;;;;;;;6.43;5.37;;;21.00;66.30;;;;;;2345171;57;21113;-73
2022/06/28 08:08:33;;;;;;;7.60;5.57;;;21.00;66.30;;;;;;2344997;57;21725;-73
2022/06/28 08:11:00;;;;;;;6.75;4.95;;;21.00;65.80;;;;;;2344776;57;22095;-73
2022/06/28 08:13:28;;;;;;;8.20;4.45;;;21.00;65.70;;;;;;2345119;57;21540;-73
2022/06/28 08:15:58;;;;;;;5.03;4.05;;;21.00;65.70;;;;;;2345047;57;21553;-73
2022/06/28 08:18:26;;;;;;;6.25;4.32;;;21.00;65.00;;;;;;2345226;57;21058;-73
2022/06/28 08:20:53;;;;;;;7.53;4.87;;;21.00;65.00;;;;;;2345403;57;21863;-72
2022/06/28 08:23:21;;;;;;;6.78;4.43;;;21.00;65.10;;;;;;2345201;57;21663;-73
2022/06/28 08:25:48;;;;;;;5.60;3.83;;;21.00;65.50;;;;;;2344603;57;21049;-73
2022/06/28 08:28:16;;;;;;;7.20;4.15;;;21.10;65.10;;;;;;2344936;57;21557;-72
2022/06/28 08:30:44;;;;;;;8.85;3.55;;;21.10;65.00;;;;;;2345298;57;21046;-73
2022/06/28 08:33:12;;;;;;;5.55;3.42;;;21.20;65.20;;;;;;2344804;57;21045;-73
2022/06/28 08:35:39;;;;;;;4.57;3.05;;;21.20;64.60;;;;;;2344580;57;21050;-74
2022/06/28 08:38:07;;;;;;;3.50;3.05;;;21.30;65.10;;;;;;2345493;57;21049;-72
2022/06/28 08:40:37;;;;;;;5.10;3.53;;;21.40;64.20;;;;;;2591925;53;21054;-73
2022/06/28 08:43:07;;;;;;;3.75;2.72;;;21.50;63.40;;;;;;2591418;53;22181;-73
2022/06/28 08:45:35;;;;;;;4.07;2.50;;;21.50;63.00;;;;;;2344797;57;21066;-73
2022/06/28 08:48:12;;;;;;;5.20;3.08;;;21.50;62.60;;;;;;2345234;57;21050;-73
2022/06/28 08:50:44;;;;;;;3.28;2.55;;;21.50;63.00;;;;;;2344766;57;21552;-73
2022/06/28 08:53:12;;;;;;;5.35;2.67;;;21.50;62.40;;;;;;2592105;53;21113;-73
2022/06/28 08:55:39;;;;;;;3.40;2.15;;;21.50;61.20;;;;;;2344460;57;22063;-73
2022/06/28 08:58:08;;;;;;;6.68;2.22;;;21.40;60.60;;;;;;2345036;57;21517;-73
2022/06/28 09:00:37;;;;;;;5.22;2.47;;;21.40;60.50;;;;;;2344856;57;21917;-73
2022/06/28 09:03:04;;;;;;;5.65;3.03;;;21.40;60.70;;;;;;2344947;57;21075;-73
2022/06/28 09:05:32;;;;;;;2.97;2.00;;;21.40;62.50;;;;;;2344667;57;21050;-73
2022/06/28 09:08:00;;;;;;;5.20;3.00;;;21.40;61.80;;;;;;2344974;57;21102;-73
2022/06/28 09:10:28;;;;;;;2.40;1.62;;;21.40;60.50;;;;;;2344702;57;21324;-73
2022/06/28 09:13:07;;;;;;;3.72;2.15;;;21.40;60.30;;;;;;2344808;57;21053;-73
2022/06/28 09:15:49;;;;;;;4.28;1.70;;;21.50;60.20;;;;;;2591579;53;21108;-73
2022/06/28 09:18:17;;;;;;;3.05;1.48;;;21.50;60.00;;;;;;2344859;57;21525;-73
2022/06/28 09:20:45;;;;;;;2.72;1.60;;;21.60;59.20;;;;;;2345096;57;21022;-73
2022/06/28 09:23:23;;;;;;;2.45;1.40;;;21.60;58.30;;;;;;2344854;57;21026;-72
2022/06/28 09:25:51;;;;;;;2.47;1.50;;;21.60;58.20;;;;;;2344059;57;21504;-72
2022/06/28 09:28:28;;;;;;;7.18;1.80;;;21.60;57.60;;;;;;2345093;57;21042;-73
2022/06/28 09:31:14;;;;;;;4.07;1.65;;;21.60;57.60;;;;;;2344973;57;21105;-73
2022/06/28 09:33:41;;;;;;;4.85;1.90;;;21.70;57.00;;;;;;2344047;57;21034;-72
2022/06/28 09:36:12;;;;;;;4.75;1.67;;;21.70;57.00;;;;;;2344433;57;21085;-73
2022/06/28 09:38:40;;;;;;;2.55;1.40;;;21.70;56.90;;;;;;2344722;57;21129;-73
2022/06/28 09:41:21;;;;;;;3.30;1.70;;;21.80;57.10;;;;;;2344964;57;21121;-73
2022/06/28 09:43:58;;;;;;;3.10;1.35;;;21.80;56.70;;;;;;2344879;57;21039;-73
2022/06/28 09:46:27;;;;;;;4.07;1.67;;;21.80;56.70;;;;;;2344862;57;21113;-73
2022/06/28 09:49:00;;;;;;;4.62;1.67;;;21.90;56.30;;;;;;2344457;57;21153;-72
2022/06/28 09:51:29;;;;;;;4.03;1.60;;;21.90;56.30;;;;;;2345347;57;21520;-73
2022/06/28 09:53:59;;;;;;;6.78;2.28;;;21.90;56.10;;;;;;2345168;57;21304;-73
2022/06/28 09:56:28;;;;;;;2.25;1.37;;;21.90;55.60;;;;;;2344886;57;21105;-73
2022/06/28 09:58:56;;;;;;;3.62;1.35;;;21.90;54.40;;;;;;2345471;57;21599;-73
2022/06/28 10:01:25;;;;;;;4.20;1.70;;;21.90;54.20;;;;;;2345009;57;22236;-73
2022/06/28 10:03:53;;;;;;;2.92;1.40;;;21.90;54.00;;;;;;2344816;57;21069;-72
2022/06/28 10:06:21;;;;;;;5.12;1.50;;;21.90;53.90;;;;;;2345051;57;21565;-73
2022/06/28 10:08:49;;;;;;;2.85;1.30;;;21.90;53.60;;;;;;2345449;57;21616;-73
2022/06/28 10:11:18;;;;;;;3.67;1.92;;;21.90;53.70;;;;;;2384798;52;21601;-72
2022/06/28 10:16:46;;;;;;;2.30;1.00;;;21.90;53.10;;;;;;2374316;56;20997;-72
2022/06/28 10:19:17;;;;;;;2.22;1.30;;;22.00;51.60;;;;;;2374622;56;21114;-72
2022/06/28 10:21:46;;;;;;;1.87;1.23;;;22.00;50.00;;;;;;2373628;56;21027;-72
2022/06/28 10:24:14;;;;;;;3.10;1.15;;;21.90;49.60;;;;;;2373564;56;21126;-72
2022/06/28 10:27:10;;;;;;;0.60;0.60;;;21.90;48.50;;;;;;2373196;56;21615;-72
2022/06/28 10:30:22;;;;;;;7.03;1.15;;;22.00;48.70;;;;;;2373306;56;21122;-72
2022/06/28 10:32:51;;;;;;;1.65;0.70;;;22.00;47.20;;;;;;2373411;56;21051;-72
2022/06/28 10:36:03;;;;;;;2.65;1.10;;;22.00;47.20;;;;;;2373495;56;21581;-73
2022/06/28 10:38:31;;;;;;;2.67;1.20;;;22.00;48.00;;;;;;2325465;56;21046;-72
2022/06/28 10:44:06;;;;;;;1.83;0.90;;;22.10;49.50;;;;;;2604251;53;22058;-73
2022/06/28 10:46:34;;;;;;;3.30;1.05;;;22.10;50.00;;;;;;2346260;57;21053;-72
2022/06/28 10:49:08;;;;;;;2.30;0.80;;;22.20;49.40;;;;;;2352116;56;21174;-72
2022/06/28 10:51:41;;;;;;;4.22;1.05;;;22.20;49.10;;;;;;2627243;52;21047;-72
2022/06/28 10:54:10;;;;;;;0.90;0.70;;;22.30;49.10;;;;;;2374410;56;21330;-73
2022/06/28 10:56:39;;;;;;;2.35;0.80;;;22.40;49.50;;;;;;2627132;52;21521;-72
2022/06/28 10:59:09;;;;;;;1.90;0.90;;;22.40;48.90;;;;;;2373996;56;21305;-73
2022/06/28 11:01:58;;;;;;;1.33;0.80;;;22.50;48.80;;;;;;2374120;56;21019;-73
2022/06/28 11:04:29;;;;;;;1.40;0.70;;;22.60;48.20;;;;;;2374070;56;21102;-73
2022/06/28 11:07:00;;;;;;;2.83;0.88;;;22.60;48.40;;;;;;2373474;56;21122;-73
2022/06/28 11:09:47;;;;;;;3.67;0.80;;;22.60;47.70;;;;;;2374011;56;21055;-73
2022/06/28 11:12:17;;;;;;;2.08;0.80;;;22.60;47.30;;;;;;2374006;56;21118;-73
2022/06/28 11:14:50;;;;;;;1.40;0.60;;;22.80;48.30;;;;;;2373835;56;21623;-73
2022/06/28 11:17:19;;;;;;;1.00;0.88;;;22.90;47.60;;;;;;2373806;56;21110;-73
2022/06/28 11:19:53;;;;;;;1.92;0.70;;;23.00;48.40;;;;;;2373937;56;21122;-73
2022/06/28 11:22:27;;;;;;;1.70;1.20;;;23.10;48.00;;;;;;2627645;52;21532;-73
2022/06/28 11:24:58;;;;;;;1.23;0.80;;;23.30;48.50;;;;;;2373849;56;21660;-73
2022/06/28 11:27:26;;;;;;;2.70;0.80;;;23.50;48.00;;;;;;2627622;52;21117;-73
2022/06/28 11:30:05;;;;;;;1.48;0.70;;;23.60;47.50;;;;;;2374148;56;21123;-73
2022/06/28 11:32:35;;;;;;;1.10;0.70;;;23.90;47.90;;;;;;2627575;52;21023;-73
2022/06/28 11:35:04;;;;;;;2.10;0.60;;;24.00;45.80;;;;;;2373749;56;21035;-73
2022/06/28 11:37:46;;;;;;;2.87;0.88;;;24.10;45.70;;;;;;2373559;56;21143;-73
2022/06/28 11:40:13;;;;;;;1.92;0.75;;;24.20;45.00;;;;;;2373788;56;21066;-73
2022/06/28 11:42:41;;;;;;;1.10;0.43;;;24.20;44.70;;;;;;2373548;56;21046;-73
2022/06/28 11:45:12;;;;;;;2.72;0.90;;;24.30;45.00;;;;;;2373724;56;21083;-73
2022/06/28 11:47:43;;;;;;;3.25;0.80;;;24.40;44.80;;;;;;2373770;56;21110;-73
2022/06/28 11:50:14;;;;;;;1.42;0.60;;;24.50;45.50;;;;;;2373382;56;21142;-72
2022/06/28 11:52:52;;;;;;;1.70;0.70;;;24.60;45.10;;;;;;2373942;56;21641;-72
2022/06/28 11:55:36;;;;;;;1.60;0.70;;;24.80;45.30;;;;;;2372744;56;21617;-72
2022/06/28 11:58:16;;;;;;;1.52;0.70;;;24.90;45.20;;;;;;2373076;56;21141;-72
2022/06/28 12:01:03;;;;;;;2.42;0.90;;;25.10;45.00;;;;;;2373318;56;21127;-73
2022/06/28 12:03:31;;;;;;;1.40;0.90;;;25.30;44.10;;;;;;2372996;56;21130;-72
2022/06/28 12:06:01;;;;;;;1.50;0.70;;;25.40;42.80;;;;;;2372066;56;21465;-72
2022/06/28 12:08:47;;;;;;;1.45;0.80;;;25.60;42.60;;;;;;2372400;56;21043;-72
2022/06/28 12:11:36;;;;;;;2.03;0.98;;;25.60;42.50;;;;;;2626244;52;21493;-72
2022/06/28 12:14:08;;;;;;;1.00;0.75;;;25.60;42.40;;;;;;2373009;56;21127;-72
2022/06/28 12:16:38;;;;;;;0.50;0.50;;;25.60;42.40;;;;;;2373489;56;21510;-72
2022/06/28 12:19:07;;;;;;;1.27;0.68;;;25.70;42.40;;;;;;2372704;56;21134;-73
2022/06/28 12:21:36;;;;;;;3.22;0.55;;;25.70;40.90;;;;;;2373103;56;21106;-72
2022/06/28 12:24:04;;;;;;;6.97;0.85;;;25.80;41.00;;;;;;2373195;56;21066;-72
2022/06/28 12:26:45;;;;;;;2.03;1.00;;;26.00;41.00;;;;;;2372827;56;21090;-72
2022/06/28 12:29:14;;;;;;;0.70;0.55;;;26.00;40.90;;;;;;2372806;56;21592;-73
2022/06/28 12:31:44;;;;;;;1.67;0.60;;;26.10;41.50;;;;;;2626328;52;21111;-73
2022/06/28 12:34:14;;;;;;;2.25;0.82;;;26.20;40.90;;;;;;2372282;56;21134;-72
2022/06/28 12:36:42;;;;;;;1.73;0.80;;;26.30;40.80;;;;;;2372499;56;21035;-72
2022/06/28 12:39:09;;;;;;;1.58;0.93;;;26.40;40.50;;;;;;2372741;56;21125;-72
2022/06/28 12:41:37;;;;;;;1.12;0.70;;;26.50;40.80;;;;;;2373127;56;21050;-73
2022/06/28 12:44:05;;;;;;;1.80;0.80;;;26.60;39.30;;;;;;2372993;56;21051;-72
2022/06/28 12:46:32;;;;;;;4.12;1.20;;;26.70;39.60;;;;;;2372715;56;21114;-73
2022/06/28 12:49:00;;;;;;;3.03;0.85;;;26.90;40.60;;;;;;2372944;56;21078;-73
2022/06/28 12:51:27;;;;;;;1.23;0.80;;;27.00;39.10;;;;;;2373012;56;21055;-72
2022/06/28 12:53:55;;;;;;;3.55;0.88;;;27.10;39.00;;;;;;2372529;56;21170;-72
2022/06/28 12:56:23;;;;;;;1.67;0.80;;;27.10;38.20;;;;;;2372775;56;21039;-72
2022/06/28 12:58:50;;;;;;;3.92;1.02;;;27.20;37.50;;;;;;2372692;56;21125;-73
2022/06/28 13:01:21;;;;;;;1.42;0.77;;;27.20;36.50;;;;;;2373037;56;21047;-72
2022/06/28 13:03:48;;;;;;;4.60;1.45;;;27.20;35.80;;;;;;2372907;56;21281;-73
2022/06/28 13:06:16;;;;;;;2.22;1.10;;;27.30;36.30;;;;;;2372496;56;21066;-72
2022/06/28 13:08:44;;;;;;;0.98;0.60;;;27.40;36.30;;;;;;2372483;56;21673;-73